createdAt,value
2023-04-15T00:00:58.893Z,6.50
2023-04-15T00:03:25.820Z,6.50
2023-04-15T00:05:52.715Z,6.50
2023-04-15T00:13:15.254Z,6.40
2023-04-15T00:15:42.656Z,6.40
2023-04-15T00:18:09.731Z,6.30
2023-04-15T00:20:37.117Z,6.30
2023-04-15T00:23:04.422Z,6.30
2023-04-15T00:25:31.471Z,6.30
2023-04-15T00:30:26.518Z,6.20
2023-04-15T00:32:53.534Z,6.20
2023-04-15T00:35:20.677Z,6.20
2023-04-15T00:37:47.405Z,6.10
2023-04-15T00:40:17.269Z,6.10
2023-04-15T00:42:44.550Z,6.20
2023-04-15T00:45:11.816Z,6.10
2023-04-15T00:47:41.732Z,6.10
2023-04-15T00:50:09.297Z,6.00
2023-04-15T00:55:04.718Z,6.00
2023-04-15T01:04:54.016Z,6.00
2023-04-15T01:07:20.707Z,5.90
2023-04-15T01:09:48.036Z,5.90
2023-04-15T01:12:17.045Z,5.90
2023-04-15T01:14:43.979Z,5.90
2023-04-15T01:17:10.973Z,5.90
2023-04-15T01:29:27.996Z,5.90
2023-04-15T01:31:56.795Z,5.80
2023-04-15T01:34:23.749Z,5.80
2023-04-15T01:36:50.441Z,5.70
2023-04-15T01:39:17.218Z,5.90
2023-04-15T01:41:44.133Z,5.80
2023-04-15T01:44:11.041Z,5.80
2023-04-15T01:51:32.107Z,5.80
2023-04-15T01:56:26.641Z,5.80
2023-04-15T02:03:49.044Z,5.70
2023-04-15T02:06:15.939Z,5.70
2023-04-15T02:11:10.125Z,5.60
2023-04-15T02:13:36.938Z,5.60
2023-04-15T02:16:04.220Z,5.60
2023-04-15T02:18:31.022Z,5.50
2023-04-15T02:20:58.658Z,5.50
2023-04-15T02:23:25.766Z,5.50
2023-04-15T02:25:53.529Z,5.40
2023-04-15T02:30:52.681Z,5.40
2023-04-15T02:35:47.278Z,5.40
2023-04-15T02:38:14.792Z,5.30
2023-04-15T02:40:41.535Z,5.30
2023-04-15T02:43:08.245Z,5.30
2023-04-15T02:48:06.251Z,5.20
2023-04-15T02:50:33.403Z,5.20
2023-04-15T02:57:56.296Z,5.20
2023-04-15T03:02:56.359Z,5.20
2023-04-15T03:05:26.464Z,5.10
2023-04-15T03:07:53.684Z,5.10
2023-04-15T03:10:21.229Z,5.10
2023-04-15T03:12:48.088Z,5.10
2023-04-15T03:15:15.590Z,5.10
2023-04-15T03:25:04.461Z,5.00
2023-04-15T03:27:31.971Z,5.00
2023-04-15T03:29:58.636Z,4.90
2023-04-15T03:32:25.327Z,5.00
2023-04-15T03:39:46.401Z,4.90
2023-04-15T03:42:13.082Z,4.90
2023-04-15T03:47:07.526Z,4.90
2023-04-15T03:52:01.374Z,4.90
2023-04-15T03:54:28.115Z,4.80
2023-04-15T03:59:22.580Z,4.80
2023-04-15T04:01:49.545Z,4.80
2023-04-15T04:04:16.557Z,4.70
2023-04-15T04:09:10.520Z,4.70
2023-04-15T04:14:04.383Z,4.60
2023-04-15T04:16:31.313Z,4.60
2023-04-15T04:18:57.980Z,4.60
2023-04-15T04:23:51.779Z,4.50
2023-04-15T04:26:18.491Z,4.50
2023-04-15T04:28:45.427Z,4.60
2023-04-15T04:33:39.291Z,4.70
2023-04-15T04:36:06.407Z,4.70
2023-04-15T04:38:33.058Z,4.70
2023-04-15T04:45:54.348Z,4.60
2023-04-15T04:53:16.076Z,4.60
2023-04-15T04:55:42.755Z,4.60
2023-04-15T05:00:37.897Z,4.90
2023-04-15T05:03:04.992Z,4.70
2023-04-15T05:12:53.009Z,4.70
2023-04-15T05:17:47.130Z,4.90
2023-04-15T05:20:14.381Z,4.90
2023-04-15T05:30:03.858Z,5.30
2023-04-15T05:32:30.561Z,5.40
2023-04-15T05:37:24.350Z,5.40
2023-04-15T05:39:51.132Z,5.50
2023-04-15T05:42:17.934Z,5.60
2023-04-15T05:44:44.647Z,5.70
2023-04-15T05:52:06.885Z,6.20
2023-04-15T05:54:33.600Z,6.40
2023-04-15T05:57:00.921Z,6.60
2023-04-15T06:01:55.407Z,7.10
2023-04-15T06:06:49.725Z,7.50
2023-04-15T06:21:32.301Z,8.70
2023-04-15T06:24:03.739Z,9.00
2023-04-15T06:28:57.936Z,9.40
2023-04-15T06:33:51.749Z,9.70
2023-04-15T06:36:18.499Z,9.80
2023-04-15T06:38:45.448Z,9.90
2023-04-15T06:43:39.904Z,10.30
2023-04-15T06:53:28.495Z,10.60
2023-04-15T06:55:55.581Z,10.70
2023-04-15T07:00:49.796Z,10.80
2023-04-15T07:05:43.637Z,11.00
2023-04-15T07:08:10.437Z,11.10
2023-04-15T07:20:27.299Z,11.70
2023-04-15T07:27:48.938Z,12.10
2023-04-15T07:32:43.133Z,12.40
2023-04-15T07:40:06.760Z,12.70
2023-04-15T07:42:35.030Z,12.70
2023-04-15T07:45:01.733Z,12.60
2023-04-15T07:54:49.837Z,13.20
2023-04-15T07:59:44.511Z,12.90
2023-04-15T08:02:12.011Z,13.10
2023-04-15T08:04:39.482Z,13.20
2023-04-15T08:07:06.356Z,13.30
2023-04-15T08:09:33.038Z,13.20
2023-04-15T08:21:49.718Z,13.20
2023-04-15T08:24:16.417Z,13.30
2023-04-15T08:36:32.491Z,13.40
2023-04-15T08:39:01.451Z,13.40
2023-04-15T08:41:30.073Z,13.50
2023-04-15T08:44:04.131Z,13.20
2023-04-15T08:46:34.783Z,13.40
2023-04-15T08:49:04.544Z,13.30
2023-04-15T08:51:32.669Z,13.40
2023-04-15T08:54:00.463Z,13.50
2023-04-15T08:56:30.886Z,13.40
2023-04-15T08:58:58.813Z,13.50
2023-04-15T09:03:57.096Z,13.60
2023-04-15T09:08:52.020Z,13.90
2023-04-15T09:11:20.253Z,13.70
2023-04-15T09:13:47.085Z,13.80
2023-04-15T09:16:14.335Z,13.90
2023-04-15T09:21:14.080Z,13.90
2023-04-15T09:23:55.053Z,14.10
2023-04-15T09:26:34.165Z,13.90
2023-04-15T09:29:09.217Z,14.00
2023-04-15T09:31:37.095Z,14.00
2023-04-15T09:36:52.487Z,14.00
2023-04-15T09:44:24.143Z,14.00
2023-04-15T09:46:50.882Z,14.00
2023-04-15T09:51:54.122Z,14.20
2023-04-15T09:54:36.650Z,14.10
2023-04-15T09:57:08.471Z,14.00
2023-04-15T10:02:06.365Z,13.70
2023-04-15T10:04:37.194Z,13.80
2023-04-15T10:07:05.316Z,13.80
2023-04-15T10:09:34.101Z,13.70
2023-04-15T10:14:32.397Z,13.60
2023-04-15T10:17:02.637Z,13.60
2023-04-15T10:19:33.263Z,13.70
2023-04-15T10:22:00.392Z,13.70
2023-04-15T10:24:28.248Z,13.60
2023-04-15T10:29:24.140Z,13.90
2023-04-15T10:31:51.395Z,13.90
2023-04-15T10:34:19.196Z,13.90
2023-04-15T10:36:47.482Z,13.90
2023-04-15T10:39:38.804Z,13.90
2023-04-15T10:42:19.518Z,14.20
2023-04-15T10:44:51.857Z,14.30
2023-04-15T10:47:20.447Z,14.30
2023-04-15T10:49:59.078Z,14.20
2023-04-15T10:52:27.617Z,14.00
2023-04-15T10:55:19.391Z,13.80
2023-04-15T10:57:46.145Z,14.00
2023-04-15T11:02:47.186Z,14.30
2023-04-15T11:05:15.481Z,14.30
2023-04-15T11:10:36.208Z,14.30
2023-04-15T11:13:17.028Z,14.30
2023-04-15T11:15:48.227Z,14.30
2023-04-15T11:18:23.135Z,14.40
2023-04-15T11:21:07.254Z,14.40
2023-04-15T11:23:47.313Z,14.20
2023-04-15T11:28:44.869Z,14.10
2023-04-15T11:31:16.341Z,14.00
2023-04-15T11:34:02.829Z,13.70
2023-04-15T11:36:34.413Z,13.90
2023-04-15T11:39:01.110Z,13.90
2023-04-15T11:41:27.842Z,14.20
2023-04-15T11:46:28.506Z,14.30
2023-04-15T11:48:55.246Z,14.20
2023-04-15T11:51:22.705Z,14.20
2023-04-15T11:53:51.126Z,14.50
2023-04-15T11:56:18.989Z,14.50
2023-04-15T11:58:46.657Z,14.50
2023-04-15T12:01:13.595Z,14.50
2023-04-15T12:04:01.206Z,14.30
2023-04-15T12:06:34.327Z,14.30
2023-04-15T12:09:07.437Z,14.20
2023-04-15T12:11:49.596Z,13.90
2023-04-15T12:14:34.556Z,13.50
2023-04-15T12:17:06.639Z,13.40
2023-04-15T12:19:38.749Z,13.30
2023-04-15T12:22:08.842Z,13.30
2023-04-15T12:24:37.223Z,13.30
2023-04-15T12:27:09.118Z,13.10
2023-04-15T12:29:38.585Z,12.90
2023-04-15T12:32:07.683Z,12.70
2023-04-15T12:34:36.099Z,12.70
2023-04-15T12:37:04.816Z,12.70
2023-04-15T12:39:35.540Z,12.70
2023-04-15T12:42:05.314Z,12.70
2023-04-15T12:44:33.180Z,12.70
2023-04-15T12:47:00.407Z,12.60
2023-04-15T12:49:27.466Z,12.50
2023-04-15T12:51:57.097Z,12.50
2023-04-15T12:54:24.040Z,12.30
2023-04-15T12:56:51.288Z,12.20
2023-04-15T12:59:18.906Z,12.30
2023-04-15T13:01:47.566Z,12.20
2023-04-15T13:04:15.744Z,12.10
2023-04-15T13:06:43.349Z,12.10
2023-04-15T13:09:10.027Z,11.90
2023-04-15T13:11:37.054Z,11.90
2023-04-15T13:14:08.899Z,12.00
2023-04-15T13:16:36.034Z,11.90
2023-04-15T13:19:03.974Z,12.00
2023-04-15T13:21:35.286Z,12.00
2023-04-15T13:24:03.712Z,12.00
2023-04-15T13:26:31.592Z,12.00
2023-04-15T13:28:58.301Z,12.10
2023-04-15T13:31:25.137Z,12.00
2023-04-15T13:33:51.939Z,11.90
2023-04-15T13:36:18.678Z,11.90
2023-04-15T13:38:45.683Z,11.90
2023-04-15T13:41:12.378Z,11.80
2023-04-15T13:43:39.040Z,11.90
2023-04-15T13:46:06.191Z,12.00
2023-04-15T13:48:32.996Z,12.00
2023-04-15T13:50:59.724Z,12.00
2023-04-15T13:53:38.280Z,11.80
2023-04-15T13:56:07.332Z,11.80
2023-04-15T13:58:34.259Z,12.00
2023-04-15T14:01:02.579Z,12.00
2023-04-15T14:03:31.019Z,12.10
2023-04-15T14:05:58.428Z,12.20
2023-04-15T14:08:25.677Z,12.40
2023-04-15T14:10:52.369Z,12.30
2023-04-15T14:13:19.627Z,12.50
2023-04-15T14:15:46.902Z,12.70
2023-04-15T14:18:13.735Z,12.70
2023-04-15T14:20:40.529Z,12.60
2023-04-15T14:23:07.264Z,12.80
2023-04-15T14:25:34.297Z,12.70
2023-04-15T14:28:02.110Z,12.60
2023-04-15T14:30:29.002Z,12.50
2023-04-15T14:32:55.893Z,12.50
2023-04-15T14:35:24.497Z,12.50
2023-04-15T14:37:51.270Z,12.50
2023-04-15T14:40:18.038Z,12.70
2023-04-15T14:42:44.763Z,12.60
2023-04-15T14:45:11.768Z,12.50
2023-04-15T14:47:38.670Z,12.80
2023-04-15T14:50:05.878Z,12.50
2023-04-15T14:52:38.960Z,12.30
2023-04-15T14:55:07.654Z,12.20
2023-04-15T14:57:34.434Z,12.20
2023-04-15T15:00:01.208Z,12.00
2023-04-15T15:02:38.393Z,11.90
2023-04-15T15:05:06.693Z,11.80
2023-04-15T15:07:33.543Z,11.60
2023-04-15T15:10:00.271Z,11.40
2023-04-15T15:12:26.981Z,11.40
2023-04-15T15:14:56.014Z,11.50
2023-04-15T15:17:22.839Z,11.50
2023-04-15T15:19:49.595Z,11.50
2023-04-15T15:22:16.538Z,11.40
2023-04-15T15:24:43.262Z,11.50
2023-04-15T15:27:10.316Z,11.50
2023-04-15T15:29:38.183Z,11.60
2023-04-15T15:32:05.131Z,11.50
2023-04-15T15:34:31.834Z,11.50
2023-04-15T15:36:58.698Z,11.40
2023-04-15T15:39:25.520Z,11.40
2023-04-15T15:41:52.316Z,11.30
2023-04-15T15:44:19.034Z,11.10
2023-04-15T15:46:48.441Z,11.00
2023-04-15T15:49:15.453Z,11.00
2023-04-15T15:51:42.189Z,11.00
2023-04-15T15:54:08.919Z,11.00
2023-04-15T15:56:38.432Z,11.00
2023-04-15T15:59:05.720Z,10.90
2023-04-15T16:01:32.621Z,10.90
2023-04-15T16:03:59.512Z,10.90
2023-04-15T16:06:27.069Z,10.80
2023-04-15T16:08:53.779Z,10.70
2023-04-15T16:11:20.855Z,10.70
2023-04-15T16:13:47.567Z,10.60
2023-04-15T16:16:14.380Z,10.60
2023-04-15T16:18:41.194Z,10.50
2023-04-15T16:21:08.514Z,10.50
2023-04-15T16:23:36.906Z,10.50
2023-04-15T16:26:03.702Z,10.40
2023-04-15T16:28:30.506Z,10.30
2023-04-15T16:30:57.282Z,10.30
2023-04-15T16:33:24.055Z,10.30
2023-04-15T16:35:51.511Z,10.20
2023-04-15T16:38:18.217Z,10.20
2023-04-15T16:40:44.931Z,10.20
2023-04-15T16:43:11.671Z,10.20
2023-04-15T16:45:38.580Z,10.20
2023-04-15T16:48:05.732Z,10.20
2023-04-15T16:50:32.585Z,10.20
2023-04-15T16:52:59.275Z,10.20
2023-04-15T16:55:26.164Z,10.10
2023-04-15T16:58:02.184Z,10.10
2023-04-15T17:00:31.356Z,10.10
2023-04-15T17:02:59.358Z,10.10
2023-04-15T17:05:30.801Z,10.10
2023-04-15T17:07:57.945Z,10.10
2023-04-15T17:10:24.864Z,10.20
2023-04-15T17:12:52.254Z,10.20
2023-04-15T17:15:20.077Z,10.00
2023-04-15T17:17:46.814Z,10.20
2023-04-15T17:20:13.756Z,10.10
2023-04-15T17:22:40.582Z,10.10
2023-04-15T17:25:07.827Z,10.10
2023-04-15T17:27:38.667Z,10.10
2023-04-15T17:30:07.191Z,10.20
2023-04-15T17:32:34.897Z,10.10
2023-04-15T17:35:04.257Z,10.10
2023-04-15T17:37:30.912Z,11.90
2023-04-15T17:39:58.048Z,10.10
2023-04-15T17:42:24.718Z,10.10
2023-04-15T17:44:51.430Z,10.10
2023-04-15T17:47:18.302Z,10.10
2023-04-15T17:49:45.052Z,10.10
2023-04-15T17:52:11.714Z,10.10
2023-04-15T17:54:38.403Z,10.10
2023-04-15T17:57:05.227Z,10.10
2023-04-15T17:59:33.649Z,10.00
2023-04-15T18:02:00.541Z,10.00
2023-04-15T18:04:27.425Z,10.00
2023-04-15T18:06:54.188Z,10.00
2023-04-15T18:09:20.966Z,10.00
2023-04-15T18:11:48.896Z,9.90
2023-04-15T18:14:30.683Z,10.10
2023-04-15T18:17:01.193Z,10.00
2023-04-15T18:19:28.112Z,10.00
2023-04-15T18:21:54.877Z,10.00
2023-04-15T18:24:22.414Z,10.00
2023-04-15T18:26:49.387Z,10.00
2023-04-15T18:29:16.628Z,10.00
2023-04-15T18:31:43.611Z,9.90
2023-04-15T18:34:10.722Z,9.90
2023-04-15T18:36:37.573Z,9.90
2023-04-15T18:39:04.942Z,9.90
2023-04-15T18:41:32.005Z,9.90
2023-04-15T18:43:58.646Z,9.90
2023-04-15T18:46:25.364Z,9.70
2023-04-15T18:48:52.057Z,9.60
2023-04-15T18:51:18.728Z,9.50
2023-04-15T18:53:45.600Z,9.50
2023-04-15T18:56:12.304Z,9.50
2023-04-15T18:59:26.001Z,9.40
2023-04-15T19:01:26.418Z,9.40
2023-04-15T19:03:53.328Z,9.40
2023-04-15T19:06:20.136Z,9.30
2023-04-15T19:08:46.818Z,9.30
2023-04-15T19:11:13.515Z,9.30
2023-04-15T19:13:40.562Z,9.30
2023-04-15T19:16:07.362Z,9.30
2023-04-15T19:18:34.094Z,9.30
2023-04-15T19:21:00.852Z,9.20
2023-04-15T19:23:27.662Z,9.20
2023-04-15T19:25:54.356Z,9.20
2023-04-15T19:28:21.036Z,9.20
2023-04-15T19:30:47.845Z,9.10
2023-04-15T19:33:14.584Z,9.10
2023-04-15T19:35:41.405Z,9.00
2023-04-15T19:38:08.151Z,9.10
2023-04-15T19:40:34.841Z,9.00
2023-04-15T19:43:01.543Z,9.00
2023-04-15T19:45:28.349Z,9.00
2023-04-15T19:47:55.086Z,9.00
2023-04-15T19:50:25.866Z,9.10
2023-04-15T19:52:53.382Z,9.00
2023-04-15T19:57:47.527Z,9.00
2023-04-15T20:00:14.322Z,9.00
2023-04-15T20:02:41.268Z,9.00
2023-04-15T20:05:09.975Z,9.10
2023-04-15T20:07:37.018Z,8.90
2023-04-15T20:10:08.530Z,9.00
2023-04-15T20:12:50.029Z,8.90
2023-04-15T20:15:19.422Z,9.00
2023-04-15T20:17:46.129Z,8.80
2023-04-15T20:20:12.886Z,8.80
2023-04-15T20:22:39.591Z,8.70
2023-04-15T20:25:06.760Z,8.80
2023-04-15T20:27:33.535Z,8.70
2023-04-15T20:30:00.448Z,8.70
2023-04-15T20:32:28.313Z,8.80
2023-04-15T20:34:55.212Z,8.70
2023-04-15T20:37:22.419Z,8.70
2023-04-15T20:39:49.196Z,8.60
2023-04-15T20:42:16.110Z,8.60
2023-04-15T20:44:42.767Z,8.70
2023-04-15T20:47:09.660Z,8.60
2023-04-15T20:49:37.580Z,8.60
2023-04-15T20:52:05.521Z,8.60
2023-04-15T20:54:32.447Z,8.60
2023-04-15T20:56:59.279Z,8.60
2023-04-15T20:59:26.104Z,8.60
2023-04-15T21:01:53.028Z,8.60
2023-04-15T21:04:21.880Z,8.70
2023-04-15T21:06:48.683Z,8.70
2023-04-15T21:09:15.482Z,8.60
2023-04-15T21:14:19.733Z,8.60
2023-04-15T21:16:46.548Z,8.80
2023-04-15T21:19:13.275Z,8.70
2023-04-15T21:21:39.973Z,8.70
2023-04-15T21:24:07.835Z,8.60
2023-04-15T21:26:36.030Z,8.60
2023-04-15T21:29:03.303Z,8.60
2023-04-15T21:31:30.429Z,8.70
2023-04-15T21:33:57.246Z,8.70
2023-04-15T21:36:23.889Z,8.60
2023-04-15T21:38:50.656Z,8.70
2023-04-15T21:41:17.610Z,8.70
2023-04-15T21:43:44.333Z,8.70
2023-04-15T21:46:21.964Z,8.70
2023-04-15T21:48:52.989Z,8.80
2023-04-15T21:51:19.726Z,8.80
2023-04-15T21:53:46.621Z,8.80
2023-04-15T21:56:13.336Z,8.80
2023-04-15T21:58:40.203Z,8.80
2023-04-15T22:01:06.990Z,8.80
2023-04-15T22:03:35.233Z,8.80
2023-04-15T22:06:05.179Z,8.90
2023-04-15T22:08:41.257Z,8.80
2023-04-15T22:11:22.935Z,8.80
2023-04-15T22:13:49.658Z,8.80
2023-04-15T22:16:16.558Z,8.90
2023-04-15T22:18:43.248Z,8.80
2023-04-15T22:21:09.977Z,8.80
2023-04-15T22:23:36.661Z,8.80
2023-04-15T22:26:04.793Z,8.80
2023-04-15T22:28:31.463Z,8.80
2023-04-15T22:30:58.969Z,8.80
2023-04-15T22:33:25.817Z,8.80
2023-04-15T22:35:52.507Z,8.80
2023-04-15T22:38:19.221Z,8.90
2023-04-15T22:40:46.588Z,10.30
2023-04-15T22:43:13.313Z,8.80
2023-04-15T22:45:40.031Z,8.80
2023-04-15T22:48:06.757Z,8.80
2023-04-15T22:50:33.461Z,8.80
2023-04-15T22:53:00.210Z,8.70
2023-04-15T22:55:26.887Z,8.80
2023-04-15T22:57:53.615Z,8.80
2023-04-15T23:00:20.423Z,8.70
2023-04-15T23:02:47.163Z,8.70
2023-04-15T23:05:13.986Z,8.80
2023-04-15T23:07:40.652Z,8.80
2023-04-15T23:10:08.031Z,8.70
2023-04-15T23:12:34.967Z,8.70
2023-04-15T23:15:03.209Z,8.70
2023-04-15T23:17:29.934Z,8.70
2023-04-15T23:19:56.636Z,8.70
2023-04-15T23:22:23.411Z,8.70
2023-04-15T23:24:50.059Z,8.70
2023-04-15T23:27:18.905Z,8.70
2023-04-15T23:29:46.028Z,8.70
2023-04-15T23:32:12.699Z,8.70
2023-04-15T23:34:39.393Z,8.70
2023-04-15T23:39:33.149Z,8.80
2023-04-15T23:41:59.898Z,8.80
2023-04-15T23:44:27.009Z,8.70
2023-04-15T23:46:53.715Z,8.70
2023-04-15T23:49:20.670Z,8.70
2023-04-15T23:51:47.512Z,8.80
2023-04-15T23:54:14.928Z,8.70
2023-04-15T23:56:41.630Z,8.80
2023-04-15T23:59:08.618Z,8.80
